sensor_id;sensor_type;location;lat;lon;timestamp;P1;durP1;ratioP1;P2;durP2;ratioP2
15402;SDS011;7799;53.478;10.170;2022-11-18T00:02:03;13.40;;;11.43;;
15402;SDS011;7799;53.478;10.170;2022-11-18T00:04:30;12.20;;;10.63;;
15402;SDS011;7799;53.478;10.170;2022-11-18T00:06:57;16.57;;;13.10;;
15402;SDS011;7799;53.478;10.170;2022-11-18T00:09:23;15.17;;;12.03;;
15402;SDS011;7799;53.478;10.170;2022-11-18T00:11:50;14.07;;;12.57;;
15402;SDS011;7799;53.478;10.170;2022-11-18T00:14:34;12.63;;;11.33;;
15402;SDS011;7799;53.478;10.170;2022-11-18T00:17:04;12.87;;;11.47;;
15402;SDS011;7799;53.478;10.170;2022-11-18T00:19:31;15.60;;;13.10;;
15402;SDS011;7799;53.478;10.170;2022-11-18T00:21:59;12.20;;;10.57;;
15402;SDS011;7799;53.478;10.170;2022-11-18T00:24:26;13.73;;;12.00;;
15402;SDS011;7799;53.478;10.170;2022-11-18T00:26:53;14.37;;;12.47;;
15402;SDS011;7799;53.478;10.170;2022-11-18T00:29:21;13.87;;;11.43;;
15402;SDS011;7799;53.478;10.170;2022-11-18T00:31:48;12.90;;;11.50;;
15402;SDS011;7799;53.478;10.170;2022-11-18T00:34:16;12.50;;;11.07;;
15402;SDS011;7799;53.478;10.170;2022-11-18T00:36:44;13.57;;;11.03;;
15402;SDS011;7799;53.478;10.170;2022-11-18T00:39:11;16.10;;;12.67;;
15402;SDS011;7799;53.478;10.170;2022-11-18T00:41:39;14.53;;;12.80;;
15402;SDS011;7799;53.478;10.170;2022-11-18T00:44:23;13.17;;;11.30;;
15402;SDS011;7799;53.478;10.170;2022-11-18T00:46:50;12.47;;;10.50;;
15402;SDS011;7799;53.478;10.170;2022-11-18T00:49:18;11.30;;;10.03;;
15402;SDS011;7799;53.478;10.170;2022-11-18T00:51:44;10.40;;;8.70;;
15402;SDS011;7799;53.478;10.170;2022-11-18T00:54:11;14.70;;;11.77;;
15402;SDS011;7799;53.478;10.170;2022-11-18T00:56:38;11.87;;;10.03;;
15402;SDS011;7799;53.478;10.170;2022-11-18T00:59:05;12.03;;;10.27;;
15402;SDS011;7799;53.478;10.170;2022-11-18T01:01:32;12.83;;;10.27;;
15402;SDS011;7799;53.478;10.170;2022-11-18T01:03:58;11.23;;;9.77;;
15402;SDS011;7799;53.478;10.170;2022-11-18T01:06:27;12.70;;;10.40;;
15402;SDS011;7799;53.478;10.170;2022-11-18T01:08:53;12.40;;;10.40;;
15402;SDS011;7799;53.478;10.170;2022-11-18T01:11:20;12.37;;;9.77;;
15402;SDS011;7799;53.478;10.170;2022-11-18T01:14:04;11.93;;;10.43;;
15402;SDS011;7799;53.478;10.170;2022-11-18T01:16:31;12.27;;;10.37;;
15402;SDS011;7799;53.478;10.170;2022-11-18T01:18:57;12.50;;;10.37;;
15402;SDS011;7799;53.478;10.170;2022-11-18T01:21:24;14.57;;;10.77;;
15402;SDS011;7799;53.478;10.170;2022-11-18T01:23:52;11.33;;;9.70;;
15402;SDS011;7799;53.478;10.170;2022-11-18T01:26:19;12.47;;;10.27;;
15402;SDS011;7799;53.478;10.170;2022-11-18T01:28:46;13.57;;;10.67;;
15402;SDS011;7799;53.478;10.170;2022-11-18T01:31:13;13.00;;;10.70;;
15402;SDS011;7799;53.478;10.170;2022-11-18T01:33:40;12.10;;;9.87;;
15402;SDS011;7799;53.478;10.170;2022-11-18T01:36:13;11.77;;;9.87;;
15402;SDS011;7799;53.478;10.170;2022-11-18T01:38:40;10.77;;;8.77;;
15402;SDS011;7799;53.478;10.170;2022-11-18T01:41:08;14.03;;;10.87;;
15402;SDS011;7799;53.478;10.170;2022-11-18T01:43:49;14.50;;;11.70;;
15402;SDS011;7799;53.478;10.170;2022-11-18T01:46:18;12.93;;;10.53;;
15402;SDS011;7799;53.478;10.170;2022-11-18T01:48:45;14.27;;;11.47;;
15402;SDS011;7799;53.478;10.170;2022-11-18T01:51:14;13.90;;;11.67;;
15402;SDS011;7799;53.478;10.170;2022-11-18T01:53:43;14.53;;;11.90;;
15402;SDS011;7799;53.478;10.170;2022-11-18T01:56:15;14.33;;;11.80;;
15402;SDS011;7799;53.478;10.170;2022-11-18T01:58:44;11.93;;;10.43;;
15402;SDS011;7799;53.478;10.170;2022-11-18T02:01:13;15.63;;;13.00;;
15402;SDS011;7799;53.478;10.170;2022-11-18T02:03:40;14.27;;;10.97;;
15402;SDS011;7799;53.478;10.170;2022-11-18T02:06:07;13.30;;;11.27;;
15402;SDS011;7799;53.478;10.170;2022-11-18T02:08:35;14.87;;;12.63;;
15402;SDS011;7799;53.478;10.170;2022-11-18T02:11:03;15.97;;;13.47;;
15402;SDS011;7799;53.478;10.170;2022-11-18T02:13:31;17.30;;;14.63;;
15402;SDS011;7799;53.478;10.170;2022-11-18T02:16:00;16.60;;;13.93;;
15402;SDS011;7799;53.478;10.170;2022-11-18T02:18:33;16.47;;;13.67;;
15402;SDS011;7799;53.478;10.170;2022-11-18T02:21:07;18.00;;;14.27;;
15402;SDS011;7799;53.478;10.170;2022-11-18T02:23:47;18.40;;;14.20;;
15402;SDS011;7799;53.478;10.170;2022-11-18T02:29:17;18.33;;;14.00;;
15402;SDS011;7799;53.478;10.170;2022-11-18T02:31:47;15.37;;;13.43;;
15402;SDS011;7799;53.478;10.170;2022-11-18T02:34:21;16.23;;;13.70;;
15402;SDS011;7799;53.478;10.170;2022-11-18T02:37:02;15.17;;;13.23;;
15402;SDS011;7799;53.478;10.170;2022-11-18T02:39:33;18.00;;;14.50;;
15402;SDS011;7799;53.478;10.170;2022-11-18T02:42:00;14.97;;;12.57;;
15402;SDS011;7799;53.478;10.170;2022-11-18T02:44:32;17.63;;;14.43;;
15402;SDS011;7799;53.478;10.170;2022-11-18T02:47:02;14.73;;;12.40;;
15402;SDS011;7799;53.478;10.170;2022-11-18T02:49:33;14.93;;;13.10;;
15402;SDS011;7799;53.478;10.170;2022-11-18T02:52:02;16.63;;;13.83;;
15402;SDS011;7799;53.478;10.170;2022-11-18T02:54:30;18.07;;;15.27;;
15402;SDS011;7799;53.478;10.170;2022-11-18T02:56:58;17.33;;;14.40;;
15402;SDS011;7799;53.478;10.170;2022-11-18T02:59:26;16.47;;;14.27;;
15402;SDS011;7799;53.478;10.170;2022-11-18T03:01:57;16.27;;;13.77;;
15402;SDS011;7799;53.478;10.170;2022-11-18T03:04:24;16.43;;;13.97;;
15402;SDS011;7799;53.478;10.170;2022-11-18T03:06:53;18.17;;;15.67;;
15402;SDS011;7799;53.478;10.170;2022-11-18T03:09:23;15.73;;;14.03;;
15402;SDS011;7799;53.478;10.170;2022-11-18T03:11:55;17.13;;;13.83;;
15402;SDS011;7799;53.478;10.170;2022-11-18T03:14:27;14.47;;;12.97;;
15402;SDS011;7799;53.478;10.170;2022-11-18T03:17:01;17.43;;;14.70;;
15402;SDS011;7799;53.478;10.170;2022-11-18T03:19:35;18.43;;;15.20;;
15402;SDS011;7799;53.478;10.170;2022-11-18T03:22:10;16.80;;;14.00;;
15402;SDS011;7799;53.478;10.170;2022-11-18T03:24:41;16.93;;;13.23;;
15402;SDS011;7799;53.478;10.170;2022-11-18T03:27:12;16.33;;;13.60;;
15402;SDS011;7799;53.478;10.170;2022-11-18T03:29:43;14.77;;;12.70;;
15402;SDS011;7799;53.478;10.170;2022-11-18T03:32:15;15.13;;;13.53;;
15402;SDS011;7799;53.478;10.170;2022-11-18T03:34:44;19.50;;;15.63;;
15402;SDS011;7799;53.478;10.170;2022-11-18T03:37:13;16.83;;;14.70;;
15402;SDS011;7799;53.478;10.170;2022-11-18T03:39:40;15.50;;;13.63;;
15402;SDS011;7799;53.478;10.170;2022-11-18T03:42:10;17.47;;;13.90;;
15402;SDS011;7799;53.478;10.170;2022-11-18T03:44:38;14.00;;;11.40;;
15402;SDS011;7799;53.478;10.170;2022-11-18T03:47:08;14.37;;;12.73;;
15402;SDS011;7799;53.478;10.170;2022-11-18T03:49:39;15.77;;;13.40;;
15402;SDS011;7799;53.478;10.170;2022-11-18T03:52:09;16.83;;;15.03;;
15402;SDS011;7799;53.478;10.170;2022-11-18T03:54:40;14.60;;;12.47;;
15402;SDS011;7799;53.478;10.170;2022-11-18T03:57:09;15.27;;;12.90;;
15402;SDS011;7799;53.478;10.170;2022-11-18T03:59:39;15.20;;;12.97;;
15402;SDS011;7799;53.478;10.170;2022-11-18T04:02:10;13.70;;;11.63;;
15402;SDS011;7799;53.478;10.170;2022-11-18T04:04:39;13.60;;;10.93;;
15402;SDS011;7799;53.478;10.170;2022-11-18T04:07:07;13.50;;;11.40;;
15402;SDS011;7799;53.478;10.170;2022-11-18T04:09:39;14.87;;;12.20;;
15402;SDS011;7799;53.478;10.170;2022-11-18T04:12:09;13.50;;;11.40;;
15402;SDS011;7799;53.478;10.170;2022-11-18T04:14:38;12.07;;;10.73;;
15402;SDS011;7799;53.478;10.170;2022-11-18T04:17:07;15.13;;;12.23;;
15402;SDS011;7799;53.478;10.170;2022-11-18T04:19:35;16.40;;;14.40;;
15402;SDS011;7799;53.478;10.170;2022-11-18T04:22:03;14.00;;;12.50;;
15402;SDS011;7799;53.478;10.170;2022-11-18T04:24:30;14.50;;;12.83;;
15402;SDS011;7799;53.478;10.170;2022-11-18T04:26:57;16.50;;;13.47;;
15402;SDS011;7799;53.478;10.170;2022-11-18T04:29:23;11.97;;;10.77;;
15402;SDS011;7799;53.478;10.170;2022-11-18T04:31:50;18.27;;;14.23;;
15402;SDS011;7799;53.478;10.170;2022-11-18T04:34:17;14.47;;;12.97;;
15402;SDS011;7799;53.478;10.170;2022-11-18T04:36:43;13.47;;;11.97;;
15402;SDS011;7799;53.478;10.170;2022-11-18T04:39:12;13.60;;;11.87;;
15402;SDS011;7799;53.478;10.170;2022-11-18T04:41:38;15.27;;;11.83;;
15402;SDS011;7799;53.478;10.170;2022-11-18T04:44:24;16.47;;;13.87;;
15402;SDS011;7799;53.478;10.170;2022-11-18T04:46:51;15.87;;;14.17;;
15402;SDS011;7799;53.478;10.170;2022-11-18T04:49:18;16.20;;;14.03;;
15402;SDS011;7799;53.478;10.170;2022-11-18T04:51:45;14.40;;;12.80;;
15402;SDS011;7799;53.478;10.170;2022-11-18T04:54:14;16.23;;;13.53;;
15402;SDS011;7799;53.478;10.170;2022-11-18T04:56:41;17.60;;;15.43;;
15402;SDS011;7799;53.478;10.170;2022-11-18T04:59:08;13.60;;;12.07;;
15402;SDS011;7799;53.478;10.170;2022-11-18T05:01:35;15.50;;;13.23;;
15402;SDS011;7799;53.478;10.170;2022-11-18T05:04:02;16.60;;;14.27;;
15402;SDS011;7799;53.478;10.170;2022-11-18T05:06:30;17.17;;;14.27;;
15402;SDS011;7799;53.478;10.170;2022-11-18T05:08:57;16.13;;;12.90;;
15402;SDS011;7799;53.478;10.170;2022-11-18T05:11:25;13.67;;;12.23;;
15402;SDS011;7799;53.478;10.170;2022-11-18T05:14:10;14.17;;;12.67;;
15402;SDS011;7799;53.478;10.170;2022-11-18T05:16:37;13.33;;;11.93;;
15402;SDS011;7799;53.478;10.170;2022-11-18T05:19:04;17.53;;;14.60;;
15402;SDS011;7799;53.478;10.170;2022-11-18T05:21:31;17.83;;;14.43;;
15402;SDS011;7799;53.478;10.170;2022-11-18T05:23:57;15.70;;;13.77;;
15402;SDS011;7799;53.478;10.170;2022-11-18T05:26:26;15.30;;;13.63;;
15402;SDS011;7799;53.478;10.170;2022-11-18T05:28:53;14.93;;;12.83;;
15402;SDS011;7799;53.478;10.170;2022-11-18T05:31:20;13.77;;;12.37;;
15402;SDS011;7799;53.478;10.170;2022-11-18T05:33:46;18.60;;;16.03;;
15402;SDS011;7799;53.478;10.170;2022-11-18T05:36:14;17.13;;;15.20;;
15402;SDS011;7799;53.478;10.170;2022-11-18T05:38:42;14.60;;;12.57;;
15402;SDS011;7799;53.478;10.170;2022-11-18T05:41:09;16.97;;;14.10;;
15402;SDS011;7799;53.478;10.170;2022-11-18T05:43:57;15.90;;;14.23;;
15402;SDS011;7799;53.478;10.170;2022-11-18T05:46:24;17.27;;;14.40;;
15402;SDS011;7799;53.478;10.170;2022-11-18T05:48:51;14.00;;;12.50;;
15402;SDS011;7799;53.478;10.170;2022-11-18T05:51:19;18.60;;;16.27;;
15402;SDS011;7799;53.478;10.170;2022-11-18T05:53:46;17.53;;;15.33;;
15402;SDS011;7799;53.478;10.170;2022-11-18T05:56:15;20.37;;;17.00;;
15402;SDS011;7799;53.478;10.170;2022-11-18T05:58:44;20.13;;;17.37;;
15402;SDS011;7799;53.478;10.170;2022-11-18T06:01:13;17.63;;;14.53;;
15402;SDS011;7799;53.478;10.170;2022-11-18T06:03:41;14.80;;;12.83;;
15402;SDS011;7799;53.478;10.170;2022-11-18T06:06:08;16.97;;;14.87;;
15402;SDS011;7799;53.478;10.170;2022-11-18T06:08:36;16.47;;;14.70;;
15402;SDS011;7799;53.478;10.170;2022-11-18T06:11:05;15.73;;;13.83;;
15402;SDS011;7799;53.478;10.170;2022-11-18T06:13:33;15.17;;;12.00;;
15402;SDS011;7799;53.478;10.170;2022-11-18T06:16:01;16.23;;;14.13;;
15402;SDS011;7799;53.478;10.170;2022-11-18T06:18:29;19.40;;;15.77;;
15402;SDS011;7799;53.478;10.170;2022-11-18T06:20:57;15.53;;;13.93;;
15402;SDS011;7799;53.478;10.170;2022-11-18T06:23:25;14.47;;;12.87;;
15402;SDS011;7799;53.478;10.170;2022-11-18T06:25:52;16.27;;;13.10;;
15402;SDS011;7799;53.478;10.170;2022-11-18T06:28:19;15.63;;;13.40;;
15402;SDS011;7799;53.478;10.170;2022-11-18T06:30:47;16.13;;;13.80;;
15402;SDS011;7799;53.478;10.170;2022-11-18T06:33:14;15.37;;;13.13;;
15402;SDS011;7799;53.478;10.170;2022-11-18T06:35:42;15.90;;;13.90;;
15402;SDS011;7799;53.478;10.170;2022-11-18T06:38:08;17.33;;;15.17;;
15402;SDS011;7799;53.478;10.170;2022-11-18T06:40:35;16.60;;;14.40;;
15402;SDS011;7799;53.478;10.170;2022-11-18T06:43:05;19.57;;;16.63;;
15402;SDS011;7799;53.478;10.170;2022-11-18T06:45:50;17.63;;;15.40;;
15402;SDS011;7799;53.478;10.170;2022-11-18T06:48:30;19.30;;;15.70;;
15402;SDS011;7799;53.478;10.170;2022-11-18T06:50:59;17.50;;;14.90;;
15402;SDS011;7799;53.478;10.170;2022-11-18T06:53:25;20.37;;;16.80;;
15402;SDS011;7799;53.478;10.170;2022-11-18T06:55:52;21.07;;;16.47;;
15402;SDS011;7799;53.478;10.170;2022-11-18T06:58:19;20.13;;;15.27;;
15402;SDS011;7799;53.478;10.170;2022-11-18T07:00:45;20.70;;;17.27;;
15402;SDS011;7799;53.478;10.170;2022-11-18T07:03:12;20.27;;;16.73;;
15402;SDS011;7799;53.478;10.170;2022-11-18T07:05:39;23.23;;;18.23;;
15402;SDS011;7799;53.478;10.170;2022-11-18T07:08:07;24.03;;;20.47;;
15402;SDS011;7799;53.478;10.170;2022-11-18T07:10:34;21.93;;;16.80;;
15402;SDS011;7799;53.478;10.170;2022-11-18T07:13:00;21.57;;;17.90;;
15402;SDS011;7799;53.478;10.170;2022-11-18T07:15:27;25.43;;;20.30;;
15402;SDS011;7799;53.478;10.170;2022-11-18T07:17:54;23.90;;;19.23;;
15402;SDS011;7799;53.478;10.170;2022-11-18T07:20:20;22.70;;;17.83;;
15402;SDS011;7799;53.478;10.170;2022-11-18T07:22:47;25.20;;;19.60;;
15402;SDS011;7799;53.478;10.170;2022-11-18T07:25:19;20.57;;;16.77;;
15402;SDS011;7799;53.478;10.170;2022-11-18T07:27:45;22.07;;;15.77;;
15402;SDS011;7799;53.478;10.170;2022-11-18T07:30:12;20.63;;;15.83;;
15402;SDS011;7799;53.478;10.170;2022-11-18T07:32:39;20.07;;;15.73;;
15402;SDS011;7799;53.478;10.170;2022-11-18T07:35:06;19.43;;;16.10;;
15402;SDS011;7799;53.478;10.170;2022-11-18T07:37:35;19.23;;;15.40;;
15402;SDS011;7799;53.478;10.170;2022-11-18T07:40:02;22.47;;;17.83;;
15402;SDS011;7799;53.478;10.170;2022-11-18T07:42:30;20.33;;;17.17;;
15402;SDS011;7799;53.478;10.170;2022-11-18T07:45:20;21.57;;;18.27;;
15402;SDS011;7799;53.478;10.170;2022-11-18T07:47:47;20.23;;;16.57;;
15402;SDS011;7799;53.478;10.170;2022-11-18T07:50:14;19.90;;;16.53;;
15402;SDS011;7799;53.478;10.170;2022-11-18T07:52:41;18.70;;;14.63;;
15402;SDS011;7799;53.478;10.170;2022-11-18T07:55:08;18.40;;;15.83;;
15402;SDS011;7799;53.478;10.170;2022-11-18T07:57:37;20.67;;;15.93;;
15402;SDS011;7799;53.478;10.170;2022-11-18T08:00:04;16.37;;;14.00;;
15402;SDS011;7799;53.478;10.170;2022-11-18T08:02:37;17.13;;;14.67;;
15402;SDS011;7799;53.478;10.170;2022-11-18T08:05:04;17.47;;;14.57;;
15402;SDS011;7799;53.478;10.170;2022-11-18T08:07:31;16.70;;;14.53;;
15402;SDS011;7799;53.478;10.170;2022-11-18T08:09:58;18.83;;;15.77;;
15402;SDS011;7799;53.478;10.170;2022-11-18T08:12:24;17.17;;;14.70;;
15402;SDS011;7799;53.478;10.170;2022-11-18T08:14:52;15.17;;;12.93;;
15402;SDS011;7799;53.478;10.170;2022-11-18T08:17:19;15.50;;;12.80;;
15402;SDS011;7799;53.478;10.170;2022-11-18T08:19:46;14.63;;;12.63;;
15402;SDS011;7799;53.478;10.170;2022-11-18T08:22:12;15.43;;;12.93;;
15402;SDS011;7799;53.478;10.170;2022-11-18T08:24:41;17.87;;;14.97;;
15402;SDS011;7799;53.478;10.170;2022-11-18T08:27:07;16.63;;;13.77;;
15402;SDS011;7799;53.478;10.170;2022-11-18T08:29:34;18.23;;;15.50;;
15402;SDS011;7799;53.478;10.170;2022-11-18T08:32:02;17.77;;;15.70;;
15402;SDS011;7799;53.478;10.170;2022-11-18T08:34:29;17.63;;;15.07;;
15402;SDS011;7799;53.478;10.170;2022-11-18T08:36:56;15.20;;;12.93;;
15402;SDS011;7799;53.478;10.170;2022-11-18T08:39:23;16.03;;;13.43;;
15402;SDS011;7799;53.478;10.170;2022-11-18T08:41:50;14.70;;;12.43;;
15402;SDS011;7799;53.478;10.170;2022-11-18T08:44:17;16.37;;;14.67;;
15402;SDS011;7799;53.478;10.170;2022-11-18T08:46:43;16.33;;;14.07;;
15402;SDS011;7799;53.478;10.170;2022-11-18T08:49:12;17.33;;;14.63;;
15402;SDS011;7799;53.478;10.170;2022-11-18T08:51:38;15.63;;;13.77;;
15402;SDS011;7799;53.478;10.170;2022-11-18T08:54:05;18.30;;;15.27;;
15402;SDS011;7799;53.478;10.170;2022-11-18T08:56:32;16.73;;;14.80;;
15402;SDS011;7799;53.478;10.170;2022-11-18T08:58:59;16.50;;;14.30;;
15402;SDS011;7799;53.478;10.170;2022-11-18T09:01:25;15.30;;;13.37;;
15402;SDS011;7799;53.478;10.170;2022-11-18T09:03:52;17.43;;;14.50;;
15402;SDS011;7799;53.478;10.170;2022-11-18T09:06:21;16.40;;;13.93;;
15402;SDS011;7799;53.478;10.170;2022-11-18T09:08:48;15.70;;;13.23;;
15402;SDS011;7799;53.478;10.170;2022-11-18T09:11:16;16.97;;;14.50;;
15402;SDS011;7799;53.478;10.170;2022-11-18T09:13:45;16.10;;;14.27;;
15402;SDS011;7799;53.478;10.170;2022-11-18T09:16:12;17.00;;;13.87;;
15402;SDS011;7799;53.478;10.170;2022-11-18T09:18:38;17.60;;;15.00;;
15402;SDS011;7799;53.478;10.170;2022-11-18T09:21:06;16.43;;;13.97;;
15402;SDS011;7799;53.478;10.170;2022-11-18T09:23:35;17.87;;;13.60;;
15402;SDS011;7799;53.478;10.170;2022-11-18T09:26:03;15.80;;;12.83;;
15402;SDS011;7799;53.478;10.170;2022-11-18T09:28:31;14.40;;;12.93;;
15402;SDS011;7799;53.478;10.170;2022-11-18T09:30:58;15.40;;;13.10;;
15402;SDS011;7799;53.478;10.170;2022-11-18T09:33:26;18.43;;;16.17;;
15402;SDS011;7799;53.478;10.170;2022-11-18T09:35:53;17.50;;;14.23;;
15402;SDS011;7799;53.478;10.170;2022-11-18T09:38:20;15.10;;;13.27;;
15402;SDS011;7799;53.478;10.170;2022-11-18T09:40:49;15.67;;;12.83;;
15402;SDS011;7799;53.478;10.170;2022-11-18T09:43:27;16.60;;;14.03;;
15402;SDS011;7799;53.478;10.170;2022-11-18T09:46:00;17.50;;;14.67;;
15402;SDS011;7799;53.478;10.170;2022-11-18T09:48:29;16.83;;;14.37;;
15402;SDS011;7799;53.478;10.170;2022-11-18T09:51:10;15.30;;;12.53;;
15402;SDS011;7799;53.478;10.170;2022-11-18T09:53:40;17.63;;;14.93;;
15402;SDS011;7799;53.478;10.170;2022-11-18T09:56:12;15.63;;;13.80;;
15402;SDS011;7799;53.478;10.170;2022-11-18T09:58:40;16.50;;;13.13;;
15402;SDS011;7799;53.478;10.170;2022-11-18T10:01:08;17.47;;;14.80;;
15402;SDS011;7799;53.478;10.170;2022-11-18T10:03:38;15.43;;;13.83;;
15402;SDS011;7799;53.478;10.170;2022-11-18T10:06:10;16.30;;;14.30;;
15402;SDS011;7799;53.478;10.170;2022-11-18T10:08:43;14.90;;;13.13;;
15402;SDS011;7799;53.478;10.170;2022-11-18T10:11:14;16.90;;;13.53;;
15402;SDS011;7799;53.478;10.170;2022-11-18T10:13:47;14.17;;;12.20;;
15402;SDS011;7799;53.478;10.170;2022-11-18T10:16:21;13.70;;;12.13;;
15402;SDS011;7799;53.478;10.170;2022-11-18T10:18:57;13.27;;;11.87;;
15402;SDS011;7799;53.478;10.170;2022-11-18T10:21:31;13.17;;;11.40;;
15402;SDS011;7799;53.478;10.170;2022-11-18T10:24:07;11.77;;;10.50;;
15402;SDS011;7799;53.478;10.170;2022-11-18T10:26:39;15.27;;;13.40;;
15402;SDS011;7799;53.478;10.170;2022-11-18T10:29:06;12.30;;;10.60;;
15402;SDS011;7799;53.478;10.170;2022-11-18T10:31:35;13.40;;;11.67;;
15402;SDS011;7799;53.478;10.170;2022-11-18T10:34:02;12.30;;;11.00;;
15402;SDS011;7799;53.478;10.170;2022-11-18T10:36:30;14.27;;;12.03;;
15402;SDS011;7799;53.478;10.170;2022-11-18T10:39:05;13.07;;;11.67;;
15402;SDS011;7799;53.478;10.170;2022-11-18T10:41:36;14.50;;;10.57;;
15402;SDS011;7799;53.478;10.170;2022-11-18T10:44:24;12.63;;;9.80;;
15402;SDS011;7799;53.478;10.170;2022-11-18T10:46:53;9.73;;;8.73;;
15402;SDS011;7799;53.478;10.170;2022-11-18T10:49:20;11.13;;;9.77;;
15402;SDS011;7799;53.478;10.170;2022-11-18T10:51:47;11.47;;;10.27;;
15402;SDS011;7799;53.478;10.170;2022-11-18T10:54:15;11.53;;;10.10;;
15402;SDS011;7799;53.478;10.170;2022-11-18T10:56:45;9.67;;;8.67;;
15402;SDS011;7799;53.478;10.170;2022-11-18T10:59:16;12.03;;;10.10;;
15402;SDS011;7799;53.478;10.170;2022-11-18T11:01:56;12.80;;;9.60;;
15402;SDS011;7799;53.478;10.170;2022-11-18T11:04:26;10.40;;;9.37;;
15402;SDS011;7799;53.478;10.170;2022-11-18T11:06:55;10.83;;;9.73;;
15402;SDS011;7799;53.478;10.170;2022-11-18T11:09:25;12.33;;;11.00;;
15402;SDS011;7799;53.478;10.170;2022-11-18T11:11:59;11.97;;;10.73;;
15402;SDS011;7799;53.478;10.170;2022-11-18T11:14:27;14.27;;;11.47;;
15402;SDS011;7799;53.478;10.170;2022-11-18T11:16:59;13.20;;;11.90;;
15402;SDS011;7799;53.478;10.170;2022-11-18T11:19:32;10.97;;;9.87;;
15402;SDS011;7799;53.478;10.170;2022-11-18T11:22:04;11.30;;;10.07;;
15402;SDS011;7799;53.478;10.170;2022-11-18T11:24:33;10.83;;;9.73;;
15402;SDS011;7799;53.478;10.170;2022-11-18T11:27:06;10.77;;;9.10;;
15402;SDS011;7799;53.478;10.170;2022-11-18T11:35:31;10.93;;;9.83;;
15402;SDS011;7799;53.478;10.170;2022-11-18T11:38:02;10.47;;;9.03;;
15402;SDS011;7799;53.478;10.170;2022-11-18T11:40:33;11.47;;;10.13;;
15402;SDS011;7799;53.478;10.170;2022-11-18T11:43:10;12.83;;;10.57;;
15402;SDS011;7799;53.478;10.170;2022-11-18T11:45:46;10.53;;;9.43;;
15402;SDS011;7799;53.478;10.170;2022-11-18T11:48:31;10.30;;;9.07;;
15402;SDS011;7799;53.478;10.170;2022-11-18T11:51:05;9.80;;;8.80;;
15402;SDS011;7799;53.478;10.170;2022-11-18T11:53:45;9.53;;;8.07;;
15402;SDS011;7799;53.478;10.170;2022-11-18T11:56:20;9.97;;;8.80;;
15402;SDS011;7799;53.478;10.170;2022-11-18T11:58:59;9.60;;;8.57;;
15402;SDS011;7799;53.478;10.170;2022-11-18T12:01:33;8.93;;;7.63;;
15402;SDS011;7799;53.478;10.170;2022-11-18T12:04:06;9.03;;;8.17;;
15402;SDS011;7799;53.478;10.170;2022-11-18T12:06:40;8.70;;;7.80;;
15402;SDS011;7799;53.478;10.170;2022-11-18T12:09:10;8.43;;;7.23;;
15402;SDS011;7799;53.478;10.170;2022-11-18T12:11:42;8.10;;;7.30;;
15402;SDS011;7799;53.478;10.170;2022-11-18T12:14:15;10.80;;;9.53;;
15402;SDS011;7799;53.478;10.170;2022-11-18T12:16:57;10.20;;;7.90;;
15402;SDS011;7799;53.478;10.170;2022-11-18T12:19:30;9.83;;;8.43;;
15402;SDS011;7799;53.478;10.170;2022-11-18T12:21:57;8.93;;;8.03;;
15402;SDS011;7799;53.478;10.170;2022-11-18T12:24:30;8.60;;;7.70;;
15402;SDS011;7799;53.478;10.170;2022-11-18T12:27:00;9.43;;;8.10;;
15402;SDS011;7799;53.478;10.170;2022-11-18T12:29:32;9.90;;;8.90;;
15402;SDS011;7799;53.478;10.170;2022-11-18T12:32:13;10.47;;;8.47;;
15402;SDS011;7799;53.478;10.170;2022-11-18T12:34:59;9.07;;;7.53;;
15402;SDS011;7799;53.478;10.170;2022-11-18T12:37:44;9.60;;;8.47;;
15402;SDS011;7799;53.478;10.170;2022-11-18T12:40:32;7.93;;;7.13;;
15402;SDS011;7799;53.478;10.170;2022-11-18T12:43:01;9.17;;;8.00;;
15402;SDS011;7799;53.478;10.170;2022-11-18T12:45:49;11.03;;;7.70;;
15402;SDS011;7799;53.478;10.170;2022-11-18T12:48:34;8.07;;;7.27;;
15402;SDS011;7799;53.478;10.170;2022-11-18T12:54:14;9.00;;;7.80;;
15402;SDS011;7799;53.478;10.170;2022-11-18T12:56:48;7.67;;;6.87;;
15402;SDS011;7799;53.478;10.170;2022-11-18T12:59:14;9.67;;;7.87;;
15402;SDS011;7799;53.478;10.170;2022-11-18T13:01:42;9.73;;;8.10;;
15402;SDS011;7799;53.478;10.170;2022-11-18T13:04:12;8.57;;;7.60;;
15402;SDS011;7799;53.478;10.170;2022-11-18T13:06:40;7.93;;;7.13;;
15402;SDS011;7799;53.478;10.170;2022-11-18T13:09:11;8.37;;;7.07;;
15402;SDS011;7799;53.478;10.170;2022-11-18T13:11:42;8.93;;;7.80;;
15402;SDS011;7799;53.478;10.170;2022-11-18T13:14:13;8.63;;;7.73;;
15402;SDS011;7799;53.478;10.170;2022-11-18T13:17:00;9.47;;;7.93;;
15402;SDS011;7799;53.478;10.170;2022-11-18T13:19:53;7.63;;;6.83;;
15402;SDS011;7799;53.478;10.170;2022-11-18T13:22:21;8.83;;;7.77;;
15402;SDS011;7799;53.478;10.170;2022-11-18T13:25:19;8.80;;;7.87;;
15402;SDS011;7799;53.478;10.170;2022-11-18T13:27:48;7.90;;;7.10;;
15402;SDS011;7799;53.478;10.170;2022-11-18T13:30:17;9.30;;;7.97;;
15402;SDS011;7799;53.478;10.170;2022-11-18T13:32:45;7.43;;;6.73;;
15402;SDS011;7799;53.478;10.170;2022-11-18T13:35:13;7.47;;;6.67;;
15402;SDS011;7799;53.478;10.170;2022-11-18T13:37:48;6.33;;;5.70;;
15402;SDS011;7799;53.478;10.170;2022-11-18T13:40:17;6.37;;;5.70;;
15402;SDS011;7799;53.478;10.170;2022-11-18T13:42:45;5.93;;;5.33;;
15402;SDS011;7799;53.478;10.170;2022-11-18T13:45:12;5.30;;;4.77;;
15402;SDS011;7799;53.478;10.170;2022-11-18T13:47:40;4.90;;;4.17;;
15402;SDS011;7799;53.478;10.170;2022-11-18T13:50:15;5.43;;;4.93;;
15402;SDS011;7799;53.478;10.170;2022-11-18T13:52:46;7.27;;;6.30;;
15402;SDS011;7799;53.478;10.170;2022-11-18T13:55:15;5.40;;;4.63;;
15402;SDS011;7799;53.478;10.170;2022-11-18T13:57:45;5.33;;;4.60;;
15402;SDS011;7799;53.478;10.170;2022-11-18T14:00:19;5.70;;;5.00;;
15402;SDS011;7799;53.478;10.170;2022-11-18T14:02:48;4.70;;;4.20;;
15402;SDS011;7799;53.478;10.170;2022-11-18T14:05:20;4.47;;;4.03;;
15402;SDS011;7799;53.478;10.170;2022-11-18T14:07:54;4.57;;;4.10;;
15402;SDS011;7799;53.478;10.170;2022-11-18T14:10:28;3.90;;;3.37;;
15402;SDS011;7799;53.478;10.170;2022-11-18T14:12:59;3.80;;;3.50;;
15402;SDS011;7799;53.478;10.170;2022-11-18T14:15:34;4.10;;;3.70;;
15402;SDS011;7799;53.478;10.170;2022-11-18T14:18:01;3.97;;;3.57;;
15402;SDS011;7799;53.478;10.170;2022-11-18T14:20:29;5.10;;;3.77;;
15402;SDS011;7799;53.478;10.170;2022-11-18T14:22:57;3.27;;;2.97;;
15402;SDS011;7799;53.478;10.170;2022-11-18T14:25:26;4.93;;;4.07;;
15402;SDS011;7799;53.478;10.170;2022-11-18T14:27:54;3.60;;;3.30;;
15402;SDS011;7799;53.478;10.170;2022-11-18T14:30:28;3.13;;;2.83;;
15402;SDS011;7799;53.478;10.170;2022-11-18T14:35:50;3.10;;;2.80;;
15402;SDS011;7799;53.478;10.170;2022-11-18T14:38:18;3.97;;;3.57;;
15402;SDS011;7799;53.478;10.170;2022-11-18T14:40:52;4.43;;;3.60;;
15402;SDS011;7799;53.478;10.170;2022-11-18T14:43:19;2.70;;;2.50;;
15402;SDS011;7799;53.478;10.170;2022-11-18T14:45:46;3.33;;;3.00;;
15402;SDS011;7799;53.478;10.170;2022-11-18T14:48:13;3.07;;;2.73;;
15402;SDS011;7799;53.478;10.170;2022-11-18T14:50:42;3.20;;;2.90;;
15402;SDS011;7799;53.478;10.170;2022-11-18T14:53:11;4.13;;;3.73;;
15402;SDS011;7799;53.478;10.170;2022-11-18T14:55:37;4.23;;;3.73;;
15402;SDS011;7799;53.478;10.170;2022-11-18T14:58:04;3.60;;;3.30;;
15402;SDS011;7799;53.478;10.170;2022-11-18T15:00:34;3.50;;;2.73;;